createdAt,value
2018-03-26T00:00:51.550Z,956.20
2018-03-26T00:01:51.549Z,956.20
2018-03-26T00:02:51.542Z,956.22
2018-03-26T00:03:51.537Z,956.23
2018-03-26T00:04:51.531Z,956.20
2018-03-26T00:05:51.530Z,956.17
2018-03-26T00:06:51.527Z,956.15
2018-03-26T00:07:51.523Z,956.17
2018-03-26T00:08:51.519Z,956.13
2018-03-26T00:09:51.512Z,956.15
2018-03-26T00:10:51.510Z,956.10
2018-03-26T00:11:51.507Z,956.19
2018-03-26T00:12:51.502Z,956.08
2018-03-26T00:13:51.497Z,956.11
2018-03-26T00:14:51.495Z,956.12
2018-03-26T00:15:51.490Z,956.16
2018-03-26T00:16:51.487Z,956.14
2018-03-26T00:17:51.481Z,956.10
2018-03-26T00:18:51.477Z,956.13
2018-03-26T00:19:51.479Z,956.11
2018-03-26T00:20:51.472Z,956.10
2018-03-26T00:21:51.503Z,956.11
2018-03-26T00:22:51.462Z,956.13
2018-03-26T00:23:51.457Z,956.09
2018-03-26T00:24:51.454Z,956.11
2018-03-26T00:25:51.450Z,956.08
2018-03-26T00:26:51.446Z,956.09
2018-03-26T00:27:51.442Z,956.10
2018-03-26T00:28:51.439Z,956.12
2018-03-26T00:29:51.435Z,956.11
2018-03-26T00:30:51.429Z,956.09
2018-03-26T00:31:51.426Z,956.07
2018-03-26T00:32:51.419Z,956.03
2018-03-26T00:33:51.417Z,956.03
2018-03-26T00:34:51.459Z,956.08
2018-03-26T00:35:51.410Z,956.03
2018-03-26T00:36:51.405Z,956.03
2018-03-26T00:37:51.400Z,956.01
2018-03-26T00:38:51.399Z,956.02
2018-03-26T00:39:51.399Z,956.03
2018-03-26T00:40:51.389Z,955.98
2018-03-26T00:41:51.386Z,956.01
2018-03-26T00:42:51.380Z,956.01
2018-03-26T00:43:51.379Z,955.99
2018-03-26T00:44:51.373Z,955.95
2018-03-26T00:45:51.371Z,955.98
2018-03-26T00:46:51.365Z,956.03
2018-03-26T00:47:51.362Z,956.00
2018-03-26T00:48:51.358Z,956.01
2018-03-26T00:49:51.351Z,956.00
2018-03-26T00:50:51.351Z,956.02
2018-03-26T00:51:51.344Z,956.05
2018-03-26T00:52:51.342Z,956.03
2018-03-26T00:53:51.336Z,956.05
2018-03-26T00:54:51.333Z,956.05
2018-03-26T00:55:51.330Z,956.02
2018-03-26T00:56:51.324Z,956.04
2018-03-26T00:57:51.322Z,956.04
2018-03-26T00:58:51.316Z,956.04
2018-03-26T00:59:51.316Z,956.00
2018-03-26T01:00:51.310Z,956.05
2018-03-26T01:01:51.305Z,956.02
2018-03-26T01:02:51.302Z,956.02
2018-03-26T01:03:51.301Z,956.05
2018-03-26T01:04:51.290Z,956.03
2018-03-26T01:05:51.352Z,956.00
2018-03-26T01:06:51.284Z,955.99
2018-03-26T01:07:51.280Z,955.96
2018-03-26T01:08:51.278Z,956.01
2018-03-26T01:09:51.273Z,956.02
2018-03-26T01:10:51.268Z,956.00
2018-03-26T01:11:51.265Z,956.03
2018-03-26T01:12:51.267Z,956.01
2018-03-26T01:13:51.255Z,955.98
2018-03-26T01:14:51.258Z,956.00
2018-03-26T01:15:51.248Z,956.01
2018-03-26T01:16:51.244Z,956.01
2018-03-26T01:17:51.237Z,956.03
2018-03-26T01:18:51.236Z,956.01
2018-03-26T01:19:51.232Z,955.98
2018-03-26T01:20:51.228Z,956.02
2018-03-26T01:21:51.224Z,956.01
2018-03-26T01:22:51.223Z,956.02
2018-03-26T01:23:51.215Z,956.04
2018-03-26T01:24:51.211Z,956.05
2018-03-26T01:25:51.206Z,956.04
2018-03-26T01:26:51.203Z,956.06
2018-03-26T01:27:51.198Z,956.08
2018-03-26T01:28:51.193Z,956.01
2018-03-26T01:29:51.191Z,956.01
2018-03-26T01:30:51.184Z,956.01
2018-03-26T01:31:51.181Z,956.05
2018-03-26T01:32:51.177Z,956.06
2018-03-26T01:33:51.172Z,956.06
2018-03-26T01:34:51.170Z,956.09
2018-03-26T01:35:51.162Z,956.07
2018-03-26T01:36:51.161Z,956.09
2018-03-26T01:37:51.176Z,956.08
2018-03-26T01:38:51.156Z,956.10
2018-03-26T01:39:51.149Z,956.08
2018-03-26T01:40:51.146Z,956.11
2018-03-26T01:41:51.140Z,956.10
2018-03-26T01:42:51.136Z,956.14
2018-03-26T01:43:51.136Z,956.11
2018-03-26T01:44:51.127Z,956.15
2018-03-26T01:45:51.124Z,956.13
2018-03-26T01:46:51.125Z,956.17
2018-03-26T01:47:51.116Z,956.20
2018-03-26T01:48:51.113Z,956.19
2018-03-26T01:49:51.110Z,956.19
2018-03-26T01:50:51.104Z,956.19
2018-03-26T01:51:51.104Z,956.19
2018-03-26T01:52:51.094Z,956.20
2018-03-26T01:53:51.094Z,956.14
2018-03-26T01:54:51.085Z,956.17
2018-03-26T01:55:51.079Z,956.17
2018-03-26T01:56:51.080Z,956.10
2018-03-26T01:57:51.074Z,956.10
2018-03-26T01:58:51.068Z,956.10
2018-03-26T01:59:51.065Z,956.11
2018-03-26T02:00:51.070Z,956.17
2018-03-26T02:01:51.057Z,956.11
2018-03-26T02:02:51.059Z,956.14
2018-03-26T02:03:51.049Z,956.14
2018-03-26T02:04:51.048Z,956.12
2018-03-26T02:05:51.040Z,956.12
2018-03-26T02:06:51.036Z,956.14
2018-03-26T02:07:51.032Z,956.08
2018-03-26T02:08:51.026Z,956.09
2018-03-26T02:09:51.024Z,956.10
2018-03-26T02:10:51.020Z,956.11
2018-03-26T02:11:51.018Z,956.10
2018-03-26T02:12:51.017Z,956.10
2018-03-26T02:13:51.005Z,956.14
2018-03-26T02:14:51.001Z,956.11
2018-03-26T02:15:50.996Z,956.15
2018-03-26T02:16:50.993Z,956.10
2018-03-26T02:17:50.988Z,956.09
2018-03-26T02:18:50.985Z,956.09
2018-03-26T02:19:50.982Z,956.13
2018-03-26T02:20:50.977Z,956.12
2018-03-26T02:21:50.973Z,956.17
2018-03-26T02:22:50.965Z,956.13
2018-03-26T02:23:50.961Z,956.13
2018-03-26T02:24:50.958Z,956.13
2018-03-26T02:25:51.010Z,956.14
2018-03-26T02:26:50.952Z,956.17
2018-03-26T02:27:50.946Z,956.17
2018-03-26T02:28:50.941Z,956.21
2018-03-26T02:29:50.938Z,956.16
2018-03-26T02:30:50.936Z,956.23
2018-03-26T02:31:50.932Z,956.20
2018-03-26T02:32:50.926Z,956.23
2018-03-26T02:33:50.924Z,956.26
2018-03-26T02:34:50.918Z,956.30
2018-03-26T02:35:50.913Z,956.29
2018-03-26T02:36:50.909Z,956.26
2018-03-26T02:37:50.905Z,956.30
2018-03-26T02:38:50.900Z,956.29
2018-03-26T02:39:50.896Z,956.32
2018-03-26T02:40:50.890Z,956.33
2018-03-26T02:41:50.885Z,956.31
2018-03-26T02:42:50.882Z,956.35
2018-03-26T02:43:50.880Z,956.33
2018-03-26T02:44:50.873Z,956.37
2018-03-26T02:45:50.869Z,956.35
2018-03-26T02:46:50.865Z,956.40
2018-03-26T02:47:50.860Z,956.35
2018-03-26T02:48:50.858Z,956.38
2018-03-26T02:49:50.850Z,956.38
2018-03-26T02:50:50.847Z,956.35
2018-03-26T02:51:50.844Z,956.39
2018-03-26T02:52:50.836Z,956.40
2018-03-26T02:53:50.834Z,956.41
2018-03-26T02:54:50.834Z,956.44
2018-03-26T02:55:50.827Z,956.44
2018-03-26T02:56:50.823Z,956.39
2018-03-26T02:57:50.818Z,956.43
2018-03-26T02:58:50.813Z,956.44
2018-03-26T02:59:50.821Z,956.45
2018-03-26T03:00:50.828Z,956.44
2018-03-26T03:01:50.799Z,956.47
2018-03-26T03:02:50.795Z,956.50
2018-03-26T03:03:50.792Z,956.48
2018-03-26T03:04:50.786Z,956.51
2018-03-26T03:05:50.795Z,956.48
2018-03-26T03:06:50.780Z,956.49
2018-03-26T03:07:50.772Z,956.48
2018-03-26T03:08:50.767Z,956.50
2018-03-26T03:09:50.763Z,956.52
2018-03-26T03:10:50.758Z,956.48
2018-03-26T03:11:50.754Z,956.50
2018-03-26T03:12:50.748Z,956.51
2018-03-26T03:13:50.746Z,956.46
2018-03-26T03:14:50.740Z,956.50
2018-03-26T03:15:50.737Z,956.55
2018-03-26T03:16:50.735Z,956.51
2018-03-26T03:17:50.726Z,956.52
2018-03-26T03:18:50.726Z,956.50
2018-03-26T03:19:50.728Z,956.53
2018-03-26T03:20:50.714Z,956.54
2018-03-26T03:21:50.710Z,956.54
2018-03-26T03:22:50.706Z,956.60
2018-03-26T03:23:50.700Z,956.63
2018-03-26T03:24:50.697Z,956.58
2018-03-26T03:25:50.692Z,956.58
2018-03-26T03:26:50.688Z,956.60
2018-03-26T03:27:50.682Z,956.63
2018-03-26T03:28:50.677Z,956.63
2018-03-26T03:29:50.675Z,956.65
2018-03-26T03:30:50.679Z,956.63
2018-03-26T03:31:50.665Z,956.67
2018-03-26T03:32:50.660Z,956.67
2018-03-26T03:33:50.663Z,956.65
2018-03-26T03:34:50.651Z,956.64
2018-03-26T03:35:50.650Z,956.68
2018-03-26T03:36:50.642Z,956.65
2018-03-26T03:37:50.636Z,956.67
2018-03-26T03:38:50.633Z,956.68
2018-03-26T03:39:50.628Z,956.67
2018-03-26T03:40:50.625Z,956.70
2018-03-26T03:41:50.622Z,956.71
2018-03-26T03:42:50.615Z,956.69
2018-03-26T03:43:50.611Z,956.71
2018-03-26T03:44:50.604Z,956.69
2018-03-26T03:45:50.601Z,956.72
2018-03-26T03:46:50.595Z,956.74
2018-03-26T03:47:50.592Z,956.75
2018-03-26T03:48:50.587Z,956.78
2018-03-26T03:49:50.583Z,956.74
2018-03-26T03:50:50.620Z,956.76
2018-03-26T03:51:50.575Z,956.78
2018-03-26T03:52:50.569Z,956.81
2018-03-26T03:53:50.564Z,956.82
2018-03-26T03:54:50.562Z,956.79
2018-03-26T03:55:50.556Z,956.79
2018-03-26T03:56:50.550Z,956.81
2018-03-26T03:57:50.547Z,956.80
2018-03-26T03:58:50.545Z,956.79
2018-03-26T03:59:50.537Z,956.83
2018-03-26T04:00:50.531Z,956.83
2018-03-26T04:01:50.528Z,956.84
2018-03-26T04:02:50.528Z,956.82
2018-03-26T04:03:50.519Z,956.79
2018-03-26T04:04:50.515Z,956.82
2018-03-26T04:05:50.510Z,956.84
2018-03-26T04:06:50.506Z,956.84
2018-03-26T04:07:50.501Z,956.82
2018-03-26T04:08:50.497Z,956.85
2018-03-26T04:09:50.492Z,956.83
2018-03-26T04:10:50.495Z,956.84
2018-03-26T04:11:50.485Z,956.81
2018-03-26T04:12:50.477Z,956.87
2018-03-26T04:13:50.474Z,956.86
2018-03-26T04:14:50.468Z,956.87
2018-03-26T04:15:50.466Z,956.87
2018-03-26T04:16:50.458Z,956.87
2018-03-26T04:17:50.478Z,956.90
2018-03-26T04:18:50.449Z,956.93
2018-03-26T04:19:50.446Z,956.88
2018-03-26T04:20:50.443Z,956.88
2018-03-26T04:21:50.437Z,956.91
2018-03-26T04:22:50.434Z,956.92
2018-03-26T04:23:50.428Z,956.90
2018-03-26T04:24:50.420Z,956.96
2018-03-26T04:25:50.454Z,956.94
2018-03-26T04:26:50.414Z,956.95
2018-03-26T04:27:50.409Z,956.93
2018-03-26T04:28:50.405Z,956.93
2018-03-26T04:29:50.399Z,956.93
2018-03-26T04:30:50.397Z,956.97
2018-03-26T04:31:50.391Z,956.98
2018-03-26T04:32:50.389Z,957.01
2018-03-26T04:33:50.379Z,957.02
2018-03-26T04:34:50.377Z,957.01
2018-03-26T04:35:50.371Z,957.01
2018-03-26T04:36:50.371Z,957.01
2018-03-26T04:37:50.364Z,957.02
2018-03-26T04:38:50.358Z,957.04
2018-03-26T04:39:50.353Z,957.08
2018-03-26T04:40:50.348Z,957.05
2018-03-26T04:41:50.343Z,957.00
2018-03-26T04:42:50.341Z,957.01
2018-03-26T04:43:50.333Z,957.03
2018-03-26T04:44:50.329Z,957.02
2018-03-26T04:45:50.325Z,957.06
2018-03-26T04:46:50.322Z,957.02
2018-03-26T04:47:50.316Z,957.05
2018-03-26T04:48:50.310Z,957.02
2018-03-26T04:49:50.305Z,957.03
2018-03-26T04:50:50.305Z,957.01
2018-03-26T04:51:50.299Z,957.01
2018-03-26T04:52:50.293Z,957.06
2018-03-26T04:53:50.290Z,957.03
2018-03-26T04:54:50.284Z,956.97
2018-03-26T04:55:50.285Z,957.05
2018-03-26T04:56:50.280Z,957.03
2018-03-26T04:57:50.271Z,957.08
2018-03-26T04:58:50.270Z,957.07
2018-03-26T04:59:50.261Z,957.13
2018-03-26T05:00:50.255Z,957.11
2018-03-26T05:01:50.252Z,957.12
2018-03-26T05:02:50.247Z,957.15
2018-03-26T05:03:50.242Z,957.12
2018-03-26T05:04:50.237Z,957.18
2018-03-26T05:05:50.233Z,957.16
2018-03-26T05:06:50.228Z,957.17
2018-03-26T05:07:50.222Z,957.20
2018-03-26T05:08:50.221Z,957.21
2018-03-26T05:09:50.243Z,957.23
2018-03-26T05:10:50.223Z,957.19
2018-03-26T05:11:50.205Z,957.17
2018-03-26T05:12:50.200Z,957.16
2018-03-26T05:13:50.197Z,957.17
2018-03-26T05:14:50.194Z,957.18
2018-03-26T05:15:50.187Z,957.22
2018-03-26T05:16:50.178Z,957.21
2018-03-26T05:17:50.176Z,957.16
2018-03-26T05:18:50.174Z,957.22
2018-03-26T05:19:50.165Z,957.22
2018-03-26T05:20:50.163Z,957.25
2018-03-26T05:21:50.158Z,957.24
2018-03-26T05:22:50.153Z,957.23
2018-03-26T05:23:50.148Z,957.23
2018-03-26T05:24:50.142Z,957.21
2018-03-26T05:25:50.145Z,957.24
2018-03-26T05:26:50.162Z,957.25
2018-03-26T05:27:50.133Z,957.24
2018-03-26T05:28:50.124Z,957.26
2018-03-26T05:29:50.124Z,957.26
2018-03-26T05:30:50.114Z,957.28
2018-03-26T05:31:50.112Z,957.26
2018-03-26T05:32:50.141Z,957.29
2018-03-26T05:33:50.101Z,957.27
2018-03-26T05:34:50.147Z,957.23
2018-03-26T05:35:50.091Z,957.24
2018-03-26T05:36:50.186Z,957.27
2018-03-26T05:37:50.081Z,957.25
2018-03-26T05:38:50.132Z,957.26
2018-03-26T05:39:50.078Z,957.25
2018-03-26T05:40:50.066Z,957.24
2018-03-26T05:41:50.126Z,957.26
2018-03-26T05:42:50.062Z,957.26
2018-03-26T05:43:50.063Z,957.24
2018-03-26T05:44:50.051Z,957.25
2018-03-26T05:45:50.046Z,957.31
2018-03-26T05:46:50.091Z,957.29
2018-03-26T05:47:50.046Z,957.33
2018-03-26T05:48:50.037Z,957.34
2018-03-26T05:49:50.027Z,957.34
2018-03-26T05:50:50.024Z,957.38
2018-03-26T05:51:50.024Z,957.39
2018-03-26T05:52:50.125Z,957.44
2018-03-26T05:53:52.079Z,957.42
2018-03-26T05:54:50.004Z,957.39
2018-03-26T05:55:49.998Z,957.43
2018-03-26T05:56:50.001Z,957.46
2018-03-26T05:57:50.040Z,957.47
2018-03-26T05:58:50.040Z,957.44
2018-03-26T05:59:50.182Z,957.46
2018-03-26T06:00:50.090Z,957.49
2018-03-26T06:01:49.972Z,957.50
2018-03-26T06:02:49.968Z,957.49
2018-03-26T06:03:49.970Z,957.50
2018-03-26T06:04:49.957Z,957.49
2018-03-26T06:05:49.980Z,957.51
2018-03-26T06:06:49.955Z,957.49
2018-03-26T06:07:49.946Z,957.53
2018-03-26T06:08:49.940Z,957.52
2018-03-26T06:09:49.934Z,957.49
2018-03-26T06:10:49.931Z,957.50
2018-03-26T06:11:49.927Z,957.50
2018-03-26T06:12:49.919Z,957.55
2018-03-26T06:13:49.917Z,957.51
2018-03-26T06:14:49.912Z,957.47
2018-03-26T06:15:49.911Z,957.51
2018-03-26T06:16:49.901Z,957.49
2018-03-26T06:17:49.898Z,957.51
2018-03-26T06:18:49.893Z,957.47
2018-03-26T06:19:49.889Z,957.60
2018-03-26T06:20:49.887Z,957.66
2018-03-26T06:21:49.896Z,957.67
2018-03-26T06:22:49.877Z,957.67
2018-03-26T06:23:49.872Z,957.66
2018-03-26T06:24:49.880Z,957.62
2018-03-26T06:25:49.863Z,957.62
2018-03-26T06:26:49.858Z,957.63
2018-03-26T06:27:49.855Z,957.63
2018-03-26T06:28:49.847Z,957.58
2018-03-26T06:29:49.842Z,957.64
2018-03-26T06:30:49.841Z,957.63
2018-03-26T06:31:49.836Z,957.65
2018-03-26T06:32:49.831Z,957.63
2018-03-26T06:33:49.840Z,957.68
2018-03-26T06:34:49.822Z,957.67
2018-03-26T06:35:49.826Z,957.67
2018-03-26T06:36:49.823Z,957.65
2018-03-26T06:37:49.811Z,957.69
2018-03-26T06:38:49.810Z,957.66
2018-03-26T06:39:49.804Z,957.68
2018-03-26T06:40:49.797Z,957.66
2018-03-26T06:41:49.792Z,957.66
2018-03-26T06:42:49.790Z,957.64
2018-03-26T06:43:49.788Z,957.63
2018-03-26T06:44:49.779Z,957.68
2018-03-26T06:45:49.791Z,957.66
2018-03-26T06:46:49.778Z,957.68
2018-03-26T06:47:49.768Z,957.71
2018-03-26T06:48:49.763Z,957.75
2018-03-26T06:49:49.763Z,957.73
2018-03-26T06:50:49.758Z,957.70
2018-03-26T06:51:49.753Z,957.74
2018-03-26T06:52:49.803Z,957.77
2018-03-26T06:53:49.744Z,957.73
2018-03-26T06:54:49.738Z,957.73
2018-03-26T06:55:49.736Z,957.76
2018-03-26T06:56:49.733Z,957.77
2018-03-26T06:57:49.731Z,957.80
2018-03-26T06:58:49.726Z,957.80
2018-03-26T06:59:49.720Z,957.83
2018-03-26T07:00:49.719Z,957.89
2018-03-26T07:01:49.717Z,957.87
2018-03-26T07:02:49.729Z,957.89
2018-03-26T07:03:49.705Z,957.89
2018-03-26T07:04:49.704Z,957.83
2018-03-26T07:05:49.700Z,957.83
2018-03-26T07:06:49.736Z,957.88
2018-03-26T07:07:49.722Z,957.90
2018-03-26T07:08:49.686Z,957.87
2018-03-26T07:09:49.685Z,957.90
2018-03-26T07:10:49.679Z,957.91
2018-03-26T07:11:49.680Z,957.91
2018-03-26T07:12:49.673Z,957.92
2018-03-26T07:13:49.672Z,957.91
2018-03-26T07:14:49.668Z,957.94
2018-03-26T07:15:49.680Z,957.95
2018-03-26T07:16:49.660Z,957.92
2018-03-26T07:17:49.661Z,957.89
2018-03-26T07:18:49.654Z,957.91
2018-03-26T07:19:49.653Z,957.95
2018-03-26T07:20:49.653Z,957.93
2018-03-26T07:21:49.648Z,957.99
2018-03-26T07:22:49.648Z,957.97
2018-03-26T07:23:49.639Z,957.99
2018-03-26T07:24:49.637Z,957.96
2018-03-26T07:25:49.633Z,957.96
2018-03-26T07:26:49.629Z,958.01
2018-03-26T07:27:49.627Z,958.01
2018-03-26T07:28:49.632Z,958.02
2018-03-26T07:29:49.622Z,958.03
2018-03-26T07:30:49.624Z,958.02
2018-03-26T07:31:49.620Z,958.08
2018-03-26T07:32:49.611Z,958.06
2018-03-26T07:33:49.609Z,958.05
2018-03-26T07:34:49.606Z,958.07
2018-03-26T07:35:49.658Z,958.09
2018-03-26T07:36:49.611Z,958.12
2018-03-26T07:37:49.599Z,958.10
2018-03-26T07:38:49.594Z,958.15
2018-03-26T07:39:49.591Z,958.19
2018-03-26T07:40:49.623Z,958.19
2018-03-26T07:41:49.589Z,958.15
2018-03-26T07:42:49.582Z,958.19
2018-03-26T07:43:49.580Z,958.19
2018-03-26T07:44:49.582Z,958.24
2018-03-26T07:45:49.577Z,958.20
2018-03-26T07:46:49.576Z,958.24
2018-03-26T07:47:49.570Z,958.26
2018-03-26T07:48:49.574Z,958.28
2018-03-26T07:49:49.562Z,958.27
2018-03-26T07:50:49.771Z,958.26
2018-03-26T07:51:49.575Z,958.32
2018-03-26T07:52:49.584Z,958.33
2018-03-26T07:53:49.581Z,958.30
2018-03-26T07:54:49.551Z,958.28
2018-03-26T07:55:49.561Z,958.34
2018-03-26T07:56:49.546Z,958.35
2018-03-26T07:57:49.550Z,958.32
2018-03-26T07:58:49.548Z,958.33
2018-03-26T07:59:49.539Z,958.32
2018-03-26T08:00:49.541Z,958.32
2018-03-26T08:01:49.649Z,958.30
2018-03-26T08:02:49.527Z,958.31
2018-03-26T08:03:49.573Z,958.31
2018-03-26T08:04:49.527Z,958.32
2018-03-26T08:05:49.528Z,958.31
2018-03-26T08:06:49.520Z,958.29
2018-03-26T08:07:49.518Z,958.33
2018-03-26T08:08:49.515Z,958.38
2018-03-26T08:09:49.513Z,958.37
2018-03-26T08:10:49.511Z,958.34
2018-03-26T08:11:49.507Z,958.37
2018-03-26T08:12:49.504Z,958.35
2018-03-26T08:13:49.503Z,958.37
2018-03-26T08:14:49.634Z,958.38
2018-03-26T08:15:51.431Z,958.41
2018-03-26T08:16:49.509Z,958.44
2018-03-26T08:17:49.564Z,958.46
2018-03-26T08:18:49.489Z,958.47
2018-03-26T08:19:49.505Z,958.47
2018-03-26T08:20:49.593Z,958.49
2018-03-26T08:21:49.524Z,958.51
2018-03-26T08:22:49.483Z,958.53
2018-03-26T08:23:49.494Z,958.54
2018-03-26T08:24:49.475Z,958.53
2018-03-26T08:25:49.473Z,958.59
2018-03-26T08:26:49.476Z,958.56
2018-03-26T08:27:49.468Z,958.56
2018-03-26T08:28:49.466Z,958.61
2018-03-26T08:29:49.462Z,958.61
2018-03-26T08:30:49.461Z,958.61
2018-03-26T08:31:49.464Z,958.63
2018-03-26T08:32:49.454Z,958.63
2018-03-26T08:33:49.453Z,958.67
2018-03-26T08:34:49.454Z,958.64
2018-03-26T08:35:49.447Z,958.65
2018-03-26T08:36:49.448Z,958.70
2018-03-26T08:37:49.448Z,958.70
2018-03-26T08:38:49.488Z,958.66
2018-03-26T08:39:49.448Z,958.72
2018-03-26T08:40:49.436Z,958.69
2018-03-26T08:41:49.433Z,958.70
2018-03-26T08:42:49.432Z,958.76
2018-03-26T08:43:49.428Z,958.74
2018-03-26T08:44:49.423Z,958.73
2018-03-26T08:45:49.445Z,958.78
2018-03-26T08:46:49.419Z,958.76
2018-03-26T08:47:49.418Z,958.71
2018-03-26T08:48:49.415Z,958.81
2018-03-26T08:49:49.522Z,958.76
2018-03-26T08:50:49.412Z,958.76
2018-03-26T08:51:49.414Z,958.79
2018-03-26T08:52:49.404Z,958.83
2018-03-26T08:53:49.408Z,958.83
2018-03-26T08:54:49.400Z,958.82
2018-03-26T08:55:49.400Z,958.85
2018-03-26T08:56:49.393Z,958.87
2018-03-26T08:57:49.409Z,958.84
2018-03-26T08:58:49.389Z,958.83
2018-03-26T08:59:49.388Z,958.90
2018-03-26T09:00:49.387Z,958.89
2018-03-26T09:01:49.382Z,958.90
2018-03-26T09:02:49.381Z,958.91
2018-03-26T09:03:49.378Z,958.91
2018-03-26T09:04:49.374Z,958.92
2018-03-26T09:05:49.427Z,958.95
2018-03-26T09:06:49.370Z,958.93
2018-03-26T09:07:49.366Z,958.92
2018-03-26T09:08:49.363Z,958.96
2018-03-26T09:09:49.362Z,958.92
2018-03-26T09:10:49.360Z,958.92
2018-03-26T09:11:49.359Z,958.93
2018-03-26T09:12:49.355Z,958.94
2018-03-26T09:13:49.352Z,958.97
2018-03-26T09:14:49.352Z,958.96
2018-03-26T09:15:49.348Z,958.95
2018-03-26T09:16:49.344Z,958.95
2018-03-26T09:17:49.346Z,958.98
2018-03-26T09:18:49.338Z,959.00
2018-03-26T09:19:49.336Z,959.01
2018-03-26T09:20:49.334Z,959.00
2018-03-26T09:21:49.330Z,959.02
2018-03-26T09:22:49.329Z,959.05
2018-03-26T09:23:49.326Z,959.07
2018-03-26T09:24:49.322Z,959.09
2018-03-26T09:25:49.349Z,959.09
2018-03-26T09:26:49.318Z,959.08
2018-03-26T09:27:49.318Z,959.11
2018-03-26T09:28:49.319Z,959.12
2018-03-26T09:29:49.310Z,959.08
2018-03-26T09:30:49.307Z,959.12
2018-03-26T09:31:49.304Z,959.17
2018-03-26T09:32:49.302Z,959.13
2018-03-26T09:33:49.300Z,959.13
2018-03-26T09:34:49.331Z,959.12
2018-03-26T09:35:49.298Z,959.06
2018-03-26T09:36:49.293Z,959.14
2018-03-26T09:37:49.293Z,959.14
2018-03-26T09:38:49.287Z,959.14
2018-03-26T09:39:49.286Z,959.17
2018-03-26T09:40:49.284Z,959.15
2018-03-26T09:41:49.280Z,959.21
2018-03-26T09:42:49.277Z,959.16
2018-03-26T09:43:49.274Z,959.19
2018-03-26T09:44:49.271Z,959.16
2018-03-26T09:45:49.274Z,959.21
2018-03-26T09:46:49.267Z,959.24
2018-03-26T09:47:49.270Z,959.18
2018-03-26T09:48:49.261Z,959.20
2018-03-26T09:49:49.258Z,959.21
2018-03-26T09:50:49.257Z,959.24
2018-03-26T09:51:49.256Z,959.28
2018-03-26T09:52:49.251Z,959.26
2018-03-26T09:53:49.249Z,959.23
2018-03-26T09:54:49.249Z,959.24
2018-03-26T09:55:49.243Z,959.24
2018-03-26T09:56:49.250Z,959.24
2018-03-26T09:57:49.238Z,959.24
2018-03-26T09:58:49.265Z,959.23
2018-03-26T09:59:49.233Z,959.27
2018-03-26T10:00:49.230Z,959.26
2018-03-26T10:01:49.227Z,959.29
2018-03-26T10:02:49.226Z,959.22
2018-03-26T10:03:49.222Z,959.28
2018-03-26T10:04:49.220Z,959.25
2018-03-26T10:05:49.218Z,959.27
2018-03-26T10:06:49.217Z,959.31
2018-03-26T10:07:49.213Z,959.26
2018-03-26T10:08:49.211Z,959.27
2018-03-26T10:09:49.209Z,959.33
2018-03-26T10:10:49.207Z,959.30
2018-03-26T10:11:49.206Z,959.31
2018-03-26T10:12:49.199Z,959.29
2018-03-26T10:13:49.198Z,959.27
2018-03-26T10:14:49.197Z,959.27
2018-03-26T10:15:49.193Z,959.31
2018-03-26T10:16:49.190Z,959.33
2018-03-26T10:17:49.188Z,959.36
2018-03-26T10:18:49.186Z,959.35
2018-03-26T10:19:49.185Z,959.38
2018-03-26T10:20:49.181Z,959.37
2018-03-26T10:21:49.178Z,959.39
2018-03-26T10:22:49.176Z,959.37
2018-03-26T10:23:49.176Z,959.40
2018-03-26T10:24:49.181Z,959.41
2018-03-26T10:25:49.171Z,959.40
2018-03-26T10:26:49.166Z,959.36
2018-03-26T10:27:49.163Z,959.37
2018-03-26T10:28:49.161Z,959.37
2018-03-26T10:29:49.159Z,959.41
2018-03-26T10:30:49.161Z,959.41
2018-03-26T10:31:49.152Z,959.38
2018-03-26T10:32:49.150Z,959.42
2018-03-26T10:33:49.147Z,959.42
2018-03-26T10:34:49.146Z,959.42
2018-03-26T10:35:49.144Z,959.45
2018-03-26T10:36:49.140Z,959.45
2018-03-26T10:37:49.138Z,959.47
2018-03-26T10:38:49.137Z,959.45
2018-03-26T10:39:49.134Z,959.49
2018-03-26T10:40:49.132Z,959.46
2018-03-26T10:41:49.130Z,959.49
2018-03-26T10:42:49.144Z,959.44
2018-03-26T10:43:49.126Z,959.48
2018-03-26T10:44:49.135Z,959.48
2018-03-26T10:45:49.120Z,959.50
2018-03-26T10:46:49.144Z,959.51
2018-03-26T10:47:49.155Z,959.52
2018-03-26T10:48:49.173Z,959.53
2018-03-26T10:49:49.112Z,959.52
2018-03-26T10:50:49.110Z,959.55
2018-03-26T10:51:49.104Z,959.57
2018-03-26T10:52:49.103Z,959.57
2018-03-26T10:53:49.100Z,959.64
2018-03-26T10:54:49.099Z,959.61
2018-03-26T10:55:49.100Z,959.68
2018-03-26T10:56:49.101Z,959.66
2018-03-26T10:57:49.091Z,959.66
2018-03-26T10:58:49.088Z,959.65
2018-03-26T10:59:49.088Z,959.70
2018-03-26T11:00:49.086Z,959.66
2018-03-26T11:01:49.082Z,959.71
2018-03-26T11:02:49.080Z,959.68
2018-03-26T11:03:49.077Z,959.72
2018-03-26T11:04:49.073Z,959.68
2018-03-26T11:05:49.075Z,959.71
2018-03-26T11:06:49.070Z,959.74
2018-03-26T11:07:49.068Z,959.72
2018-03-26T11:08:49.066Z,959.73
2018-03-26T11:09:49.064Z,959.76
2018-03-26T11:10:49.060Z,959.77
2018-03-26T11:11:49.058Z,959.78
2018-03-26T11:12:49.058Z,959.77
2018-03-26T11:13:49.061Z,959.78
2018-03-26T11:14:49.051Z,959.76
2018-03-26T11:15:49.049Z,959.78
2018-03-26T11:16:49.044Z,959.77
2018-03-26T11:17:49.044Z,959.78
2018-03-26T11:18:49.041Z,959.78
2018-03-26T11:19:49.041Z,959.81
2018-03-26T11:20:49.036Z,959.76
2018-03-26T11:21:49.035Z,959.75
2018-03-26T11:22:49.037Z,959.77
2018-03-26T11:23:49.033Z,959.79
2018-03-26T11:24:49.030Z,959.77
2018-03-26T11:25:49.023Z,959.77
2018-03-26T11:26:49.020Z,959.76
2018-03-26T11:27:49.019Z,959.75
2018-03-26T11:28:49.015Z,959.79
2018-03-26T11:29:49.013Z,959.74
2018-03-26T11:30:49.011Z,959.75
2018-03-26T11:31:49.008Z,959.78
2018-03-26T11:32:49.183Z,959.81
2018-03-26T11:33:49.002Z,959.80
2018-03-26T11:34:49.000Z,959.84
2018-03-26T11:35:49.027Z,959.81
2018-03-26T11:36:49.014Z,959.86
2018-03-26T11:37:49.013Z,959.83
2018-03-26T11:38:48.991Z,959.89
2018-03-26T11:39:48.992Z,959.85
2018-03-26T11:40:48.989Z,959.89
2018-03-26T11:41:49.030Z,959.86
2018-03-26T11:42:48.978Z,959.86
2018-03-26T11:43:48.978Z,959.86
2018-03-26T11:44:48.972Z,959.87
2018-03-26T11:45:48.971Z,959.82
2018-03-26T11:46:48.969Z,959.81
2018-03-26T11:47:48.973Z,959.84
2018-03-26T11:48:48.961Z,959.84
2018-03-26T11:49:48.960Z,959.82
2018-03-26T11:50:48.958Z,959.83
2018-03-26T11:51:48.955Z,959.85
2018-03-26T11:52:48.952Z,959.82
2018-03-26T11:53:48.958Z,959.82
2018-03-26T11:54:48.948Z,959.83
2018-03-26T11:55:48.946Z,959.86
2018-03-26T11:56:48.942Z,959.82
2018-03-26T11:57:48.936Z,959.82
2018-03-26T11:58:48.937Z,959.83
2018-03-26T11:59:48.935Z,959.83
2018-03-26T12:00:48.932Z,959.79
2018-03-26T12:01:48.929Z,959.81
2018-03-26T12:02:48.926Z,959.83
2018-03-26T12:03:48.930Z,959.84
2018-03-26T12:04:48.923Z,959.80
2018-03-26T12:05:48.920Z,959.82
2018-03-26T12:06:48.916Z,959.81
2018-03-26T12:07:48.914Z,959.74
2018-03-26T12:08:48.933Z,959.78
2018-03-26T12:09:49.009Z,959.80
2018-03-26T12:10:48.981Z,959.79
2018-03-26T12:11:49.045Z,959.79
2018-03-26T12:12:48.904Z,959.79
2018-03-26T12:13:48.973Z,959.80
2018-03-26T12:14:48.903Z,959.81
2018-03-26T12:15:48.900Z,959.78
2018-03-26T12:16:48.892Z,959.84
2018-03-26T12:17:48.892Z,959.83
2018-03-26T12:18:48.887Z,959.83
2018-03-26T12:19:48.932Z,959.82
2018-03-26T12:20:48.882Z,959.83
2018-03-26T12:21:48.881Z,959.81
2018-03-26T12:22:48.879Z,959.83
2018-03-26T12:23:48.881Z,959.86
2018-03-26T12:24:48.877Z,959.87
2018-03-26T12:25:48.878Z,959.90
2018-03-26T12:26:48.869Z,959.85
2018-03-26T12:27:48.868Z,959.89
2018-03-26T12:28:48.868Z,959.87